Latest Weather Observations for Coolangatta

IDN60801

Issued at 6:02 pm EST Friday 28 April 2017 (issued every 30 minutes, with the page automatically refreshed every 10 minutes)

About weather observations | Map of weather stations | Latest weather observations for NSW | Other Formats
Station Details ID: 040717 Name: COOLANGATTA Lat: -28.17 Lon: 153.51 Height: 4.0 m
Data from the previous 72 hours. | See also: Recent months at Coolangatta
Date/Time
EST
Temp
°C
App
Temp
°C
Dew
Point
°C
Rel
Hum
%
Delta-T
°C
Wind Press
QNH
hPa
Press
MSL
hPa
Rain since
9am
mm
Dir  Spd
km/h
Gust
km/h
Spd
kts
Gust
kts
28/06:00pm 19.3 16.6 13.5 69 3.3 SSW 20 32 11 17 1016.2 1016.1 0.0
28/05:30pm 18.6 16.6 13.9 74 2.7 SSW 17 28 9 15 1016.0 1015.9 0.0
28/05:00pm 19.4 16.9 13.6 69 3.3 SSW 19 26 10 14 1015.7 1015.6 0.0
28/04:30pm 19.8 16.8 13.7 68 3.5 SSW 22 37 12 20 1015.2 1015.1 0.0
28/04:00pm 20.4 16.5 13.4 64 4.0 SSW 26 39 14 21 1014.9 1014.8 0.0
28/03:30pm 21.1 18.3 13.3 61 4.5 SSW 20 37 11 20 1014.7 1014.6 0.0
28/03:00pm 20.9 17.5 13.6 63 4.2 S 24 41 13 22 1014.8 1014.7 0.0
28/02:30pm 20.6 16.9 12.8 61 4.4 SSW 24 35 13 19 1014.4 1014.3 0.0
28/02:00pm 20.7 17.4 12.7 60 4.5 SSW 22 33 12 18 1014.5 1014.4 0.0
28/01:30pm 20.8 16.7 12.8 60 4.5 S 26 43 14 23 1014.4 1014.3 0.0
28/01:09pm 21.5 16.8 12.1 55 5.3 S 28 46 15 25 1014.3 1014.2 0.0
28/01:00pm 22.8 18.4 13.0 54 5.6 S 28 39 15 21 1014.4 1014.3 0.0
28/12:30pm 22.5 18.4 12.7 54 5.6 S 26 41 14 22 1014.5 1014.4 0.0
28/12:14pm 22.2 16.5 11.9 52 5.8 S 33 52 18 28 1014.4 1014.3 0.0
28/12:00pm 22.2 17.1 11.9 52 5.8 SSW 30 43 16 23 1014.5 1014.4 0.0
28/11:38am 22.4 17.7 12.1 52 5.8 S 28 46 15 25 1014.9 1014.8 0.0
28/11:30am 21.9 16.7 11.6 52 5.7 SSW 30 44 16 24 1015.1 1015.0 0.0
28/11:00am 21.6 16.7 11.3 52 5.7 SSW 28 43 15 23 1015.3 1015.2 0.0
28/10:30am 20.8 16.4 10.3 51 5.7 SSW 24 35 13 19 1015.9 1015.8 0.0
28/10:00am 20.5 15.6 10.0 51 5.6 SSW 26 41 14 22 1016.1 1016.0 0.0
28/09:30am 20.3 15.1 10.1 52 5.5 SSW 28 43 15 23 1016.2 1016.1 0.0
28/09:10am 19.9 14.6 9.8 52 5.4 SSW 28 48 15 26 1016.4 1016.4 0.0
28/09:00am 19.9 15.4 10.0 53 5.3 SSW 24 35 13 19 1016.3 1016.3 0.0
28/08:30am 19.1 14.3 9.0 52 5.3 SSW 24 35 13 19 1016.6 1016.6 0.0
28/08:00am 19.0 16.1 9.5 54 5.0 S 15 24 8 13 1016.6 1016.6 0.0
28/07:30am 17.7 14.5 8.6 55 4.7 S 15 22 8 12 1016.1 1016.0 0.0
28/07:00am 17.1 14.2 8.3 56 4.5 SSW 13 20 7 11 1015.6 1015.5 0.0
28/06:30am 16.6 14.5 8.3 58 4.2 SSW 9 15 5 8 1015.2 1015.1 0.0
28/06:00am 16.4 14.4 8.6 60 4.0 SSW 9 19 5 10 1014.7 1014.6 0.0
28/05:30am 16.1 13.4 9.1 63 3.6 SW 13 19 7 10 1014.2 1014.1 0.0
28/05:00am 15.9 13.3 9.3 65 3.4 SW 13 19 7 10 1014.0 1013.9 0.0
28/04:30am 14.8 13.0 9.4 70 2.8 SW 9 13 5 7 1013.6 1013.5 0.0
28/04:00am 15.5 12.8 9.0 65 3.3 SW 13 20 7 11 1013.3 1013.2 0.0
28/03:30am 15.3 13.1 9.2 67 3.1 SSW 11 17 6 9 1013.4 1013.3 0.0
28/03:00am 15.7 13.1 9.4 66 3.3 SW 13 20 7 11 1013.4 1013.3 0.0
28/02:30am 16.2 12.9 9.4 64 3.5 SSW 17 24 9 13 1013.8 1013.7 0.0
28/02:00am 16.3 13.0 9.5 64 3.5 SSW 17 30 9 16 1013.9 1013.8 0.0
28/01:30am 16.9 13.3 9.8 63 3.7 SSW 19 26 10 14 1014.2 1014.1 0.0
28/01:00am 17.1 14.3 10.0 63 3.7 SSW 15 22 8 12 1014.4 1014.3 0.0
28/12:30am 16.8 14.0 10.0 64 3.6 SSW 15 20 8 11 1014.5 1014.4 0.0
28/12:00am 16.9 14.1 10.1 64 3.6 SSW 15 20 8 11 1014.4 1014.3 0.0
 
Date/Time
EST
Temp
°C
App
Temp
°C
Dew
Point
°C
Rel
Hum
%
Delta-T
°C
Wind Press
QNH
hPa
Press
MSL
hPa
Rain since
9am
mm
Dir  Spd
km/h
Gust
km/h
Spd
kts
Gust
kts
27/11:30pm 16.9 14.9 10.1 64 3.6 SSW 11 15 6 8 1014.7 1014.6 0.0
27/11:00pm 17.1 15.1 10.2 64 3.7 SW 11 17 6 9 1014.6 1014.5 0.0
27/10:30pm 17.2 15.7 10.6 65 3.5 SW 9 15 5 8 1014.9 1014.8 0.0
27/10:00pm 16.7 15.3 10.8 68 3.2 SSW 9 19 5 10 1014.8 1014.7 0.0
27/09:30pm 16.8 15.4 10.9 68 3.2 SSW 9 15 5 8 1015.0 1014.9 0.0
27/09:00pm 15.9 14.8 10.7 71 2.8 S 7 13 4 7 1015.0 1014.9 0.0
27/08:30pm 16.6 15.1 10.7 68 3.1 SSW 9 13 5 7 1015.1 1015.0 0.0
27/08:00pm 15.5 14.7 11.7 78 2.1 SSW 7 11 4 6 1014.8 1014.7 0.0
27/07:30pm 14.7 13.7 11.1 79 1.9 SSW 7 9 4 5 1014.6 1014.5 0.0
27/07:00pm 14.6 13.3 11.2 80 1.8 SW 9 11 5 6 1014.1 1014.0 0.0
27/06:30pm 14.9 13.9 10.9 77 2.1 WSW 7 9 4 5 1013.7 1013.6 0.0
27/06:00pm 15.6 14.6 10.4 71 2.7 SSW 6 7 3 4 1013.5 1013.4 0.0
27/05:30pm 16.1 14.7 9.5 65 3.4 SW 7 9 4 5 1013.3 1013.2 0.0
27/05:00pm 18.4 16.4 8.7 53 5.0 S 9 13 5 7 1013.0 1012.9 0.0
27/04:30pm 19.6 17.4 8.0 47 6.0 S 9 15 5 8 1012.8 1012.7 0.0
27/04:00pm 20.3 17.3 7.7 44 6.5 S 13 17 7 9 1012.1 1012.0 0.0
27/03:30pm 20.6 17.6 7.6 43 6.7 SSW 13 20 7 11 1012.1 1012.0 0.0
27/03:00pm 20.9 17.1 7.5 42 6.9 S 17 24 9 13 1011.9 1011.8 0.0
27/02:30pm 21.3 17.5 7.5 41 7.1 S 17 20 9 11 1012.0 1011.9 0.0
27/02:00pm 20.6 17.6 5.8 38 7.4 S 11 20 6 11 1011.9 1011.8 0.0
27/01:30pm 21.3 17.8 7.2 40 7.2 SSW 15 22 8 12 1012.1 1012.0 0.0
27/01:00pm 20.6 16.9 6.5 40 7.1 S 15 26 8 14 1012.2 1012.1 0.0
27/12:30pm 20.3 17.0 6.3 40 7.0 SSE 13 20 7 11 1012.5 1012.4 0.0
27/12:00pm 19.7 17.2 6.4 42 6.7 SW 9 15 5 8 1012.8 1012.7 0.0
27/11:30am 19.7 16.0 6.4 42 6.6 S 15 24 8 13 1013.1 1013.0 0.0
27/11:00am 19.2 16.0 7.0 45 6.1 SSE 13 24 7 13 1013.5 1013.4 0.0
27/10:30am 18.5 14.7 6.0 44 6.1 S 15 20 8 11 1013.7 1013.6 0.0
27/10:00am 18.1 13.5 5.7 44 6.0 S 19 28 10 15 1013.8 1013.7 0.0
27/09:30am 17.9 13.8 6.1 46 5.8 SSW 17 26 9 14 1014.0 1013.9 0.0
27/09:00am 17.6 13.7 7.1 50 5.2 SSW 17 26 9 14 1013.8 1013.7 1.6
27/08:30am 16.8 12.5 6.9 52 4.9 SSW 19 28 10 15 1013.8 1013.7 1.6
27/08:00am 15.9 12.4 7.4 57 4.2 SSW 15 22 8 12 1013.4 1013.3 1.6
27/07:30am 14.9 11.6 8.2 64 3.4 SSE 15 20 8 11 1012.9 1012.8 1.6
27/07:00am 13.6 11.6 10.0 79 1.9 SE 11 13 6 7 1012.3 1012.2 1.6
27/06:30am 12.3 10.6 10.0 86 1.2 SSW 9 13 5 7 1012.0 1011.9 1.6
27/06:00am 10.6 10.4 9.2 91 0.7 CALM 0 0 0 0 1011.8 1011.7 1.6
27/05:30am 11.0 9.8 10.2 95 0.4 WSW 7 11 4 6 1011.3 1011.2 1.6
27/05:00am 11.0 10.3 10.1 94 0.5 NNW 4 7 2 4 1010.8 1010.7 1.4
27/04:30am 11.5 10.9 10.4 93 0.6 SE 4 9 2 5 1010.9 1010.8 1.4
27/04:00am 11.6 10.4 10.3 92 0.7 W 7 11 4 6 1010.8 1010.7 1.4
27/03:30am 12.2 11.4 11.1 93 0.6 SW 6 9 3 5 1010.8 1010.7 1.4
27/03:00am 12.5 11.6 11.4 93 0.6 S 7 9 4 5 1010.9 1010.8 1.4
27/02:30am 13.5 12.4 12.1 91 0.8 SSW 9 11 5 6 1011.2 1011.1 1.4
27/02:00am 13.8 13.2 12.2 90 0.9 W 7 9 4 5 1011.1 1011.0 1.4
27/01:30am 15.0 14.1 12.7 86 1.3 WSW 9 11 5 6 1011.3 1011.2 1.4
27/01:00am 14.5 14.5 13.7 95 0.4 W 6 9 3 5 1011.3 1011.2 1.4
27/12:30am 15.4 16.2 14.8 96 0.3 N 4 7 2 4 1011.2 1011.1 1.4
27/12:00am 15.8 16.4 15.3 97 0.3 W 6 7 3 4 1011.1 1011.0 1.4
 
Date/Time
EST
Temp
°C
App
Temp
°C
Dew
Point
°C
Rel
Hum
%
Delta-T
°C
Wind Press
QNH
hPa
Press
MSL
hPa
Rain since
9am
mm
Dir  Spd
km/h
Gust
km/h
Spd
kts
Gust
kts
26/11:37pm 15.6 15.9 15.0 96 0.3 WSW 7 9 4 5 1010.9 1010.8 1.4
26/11:30pm 15.5 15.7 14.7 95 0.5 W 7 7 4 4 1010.9 1010.8 1.4
26/11:00pm 16.4 18.1 15.3 93 0.6 CALM 0 0 0 0 1010.6 1010.5 1.4
26/10:30pm 17.5 18.2 16.0 91 0.9 WNW 7 9 4 5 1010.4 1010.3 1.4
26/10:00pm 18.5 19.2 15.7 84 1.7 WNW 6 9 3 5 1010.4 1010.3 1.4
26/09:30pm 19.4 18.6 16.1 81 2.0 WNW 15 19 8 10 1010.4 1010.3 1.4
26/09:00pm 19.9 20.0 17.5 86 1.5 NW 13 17 7 9 1010.4 1010.3 1.4
26/08:30pm 20.0 20.8 18.1 89 1.2 NW 11 15 6 8 1010.4 1010.3 1.4
26/08:00pm 19.0 19.8 18.2 95 0.5 NW 11 13 6 7 1009.8 1009.7 1.4
26/07:30pm 19.4 20.9 17.5 89 1.2 WNW 6 7 3 4 1009.2 1009.1 1.4
26/07:00pm 20.6 22.3 18.5 88 1.3 NNW 7 9 4 5 1009.3 1009.2 1.4
26/06:30pm 21.0 22.0 18.6 86 1.5 NW 11 15 6 8 1008.9 1008.8 1.4
26/06:00pm 21.6 23.1 18.8 84 1.8 NNW 9 15 5 8 1008.9 1008.8 1.4
26/05:30pm 21.6 22.3 18.8 84 1.8 NNW 13 20 7 11 1008.5 1008.4 1.4
26/05:00pm 21.7 21.5 18.5 82 2.0 NW 17 24 9 13 1008.2 1008.1 1.4
26/04:30pm 21.9 21.6 18.3 80 2.2 NNW 17 24 9 13 1008.2 1008.1 1.4
26/04:00pm 22.3 21.4 18.1 77 2.6 NNW 20 28 11 15 1008.2 1008.1 1.4
26/03:30pm 22.3 22.2 18.7 80 2.3 NNW 17 24 9 13 1008.3 1008.2 1.4
26/03:00pm 21.6 22.1 18.4 82 2.0 NNW 13 20 7 11 1008.6 1008.5 1.4
26/02:30pm 21.7 21.9 18.5 82 2.0 NNW 15 22 8 12 1009.0 1008.9 1.2
26/02:00pm 22.2 21.6 18.8 81 2.1 N 20 28 11 15 1009.0 1008.9 1.0
26/01:30pm 22.1 21.2 18.3 79 2.4 NNW 20 28 11 15 1009.1 1009.0 1.0
26/01:00pm 21.1 20.6 19.0 88 1.3 NNW 20 26 11 14 1009.7 1009.6 1.0
26/12:30pm 20.6 21.2 18.7 89 1.2 NNW 13 20 7 11 1010.2 1010.1 0.8
26/12:00pm 21.2 22.6 18.6 85 1.6 NW 9 15 5 8 1010.7 1010.6 0.2
26/11:30am 22.1 22.0 17.0 73 3.1 NW 13 17 7 9 1011.2 1011.1 0.0
26/11:00am 22.6 21.8 17.1 71 3.4 NNW 17 24 9 13 1011.5 1011.4 0.0
26/10:30am 22.0 21.8 16.7 72 3.2 WNW 13 20 7 11 1012.3 1012.2 0.0
26/10:00am 21.8 21.1 16.5 72 3.2 NW 15 28 8 15 1013.1 1013.0 0.0
26/09:30am 22.1 22.6 16.6 71 3.3 WNW 9 15 5 8 1013.1 1013.0 0.0
26/09:00am 22.2 22.3 16.5 70 3.5 WNW 11 17 6 9 1013.0 1012.9 0.0
26/08:30am 22.1 22.2 16.4 70 3.5 NNW 11 19 6 10 1013.1 1013.0 0.0
26/08:00am 22.4 22.6 16.7 70 3.5 NW 11 15 6 8 1013.3 1013.2 0.0
26/07:30am 22.2 21.4 17.1 73 3.1 WNW 17 22 9 12 1013.2 1013.1 0.0
26/07:00am 20.6 20.3 16.4 77 2.5 WNW 13 17 7 9 1013.0 1012.9 0.0
26/06:30am 20.0 19.7 16.4 80 2.2 NNW 13 17 7 9 1012.4 1012.3 0.0
26/06:00am 19.4 20.0 15.9 80 2.1 N 7 9 4 5 1012.5 1012.4 0.0
26/05:30am 20.2 19.8 16.2 78 2.4 NW 13 17 7 9 1012.7 1012.6 0.0
26/05:00am 20.5 20.1 16.3 77 2.5 NNW 13 17 7 9 1012.5 1012.4 0.0
26/04:30am 20.1 19.8 16.5 80 2.2 NW 13 20 7 11 1012.6 1012.5 0.0
26/04:00am 20.2 19.1 16.4 79 2.3 NW 17 20 9 11 1012.4 1012.3 0.0
26/03:30am 19.9 19.2 16.5 81 2.0 NW 15 20 8 11 1012.5 1012.4 0.0
26/03:00am 19.6 19.3 16.4 82 1.9 NW 13 19 7 10 1012.7 1012.6 0.0
26/02:30am 19.2 19.3 16.4 84 1.7 NW 11 17 6 9 1012.5 1012.4 0.0
26/02:00am 19.3 19.3 16.3 83 1.8 NNW 11 19 6 10 1012.7 1012.6 0.0
26/01:30am 19.0 19.4 16.2 84 1.7 NW 9 13 5 7 1013.1 1013.0 0.0
26/01:00am 19.2 19.2 16.2 83 1.8 NW 11 15 6 8 1013.4 1013.3 0.0
26/12:30am 19.3 19.3 16.3 83 1.8 NW 11 13 6 7 1013.6 1013.5 0.0
26/12:00am 19.3 18.9 16.3 83 1.8 NW 13 17 7 9 1013.8 1013.7 0.0
 
Date/Time
EST
Temp
°C
App
Temp
°C
Dew
Point
°C
Rel
Hum
%
Delta-T
°C
Wind Press
QNH
hPa
Press
MSL
hPa
Rain since
9am
mm
Dir  Spd
km/h
Gust
km/h
Spd
kts
Gust
kts
25/11:30pm 19.6 18.9 16.4 82 1.9 NW 15 19 8 10 1014.2 1014.1 0.0
25/11:00pm 19.2 19.3 16.4 84 1.7 NW 11 15 6 8 1014.5 1014.4 0.0
25/10:30pm 19.1 19.4 16.1 83 1.8 NW 9 11 5 6 1014.7 1014.6 0.0
25/10:00pm 19.3 19.2 16.0 81 2.0 WNW 11 15 6 8 1015.1 1015.0 0.0
25/09:30pm 19.4 19.0 16.1 81 2.0 NW 13 15 7 8 1015.2 1015.1 0.0
25/09:00pm 19.3 19.7 16.2 82 1.9 WNW 9 13 5 7 1015.5 1015.4 0.0
25/08:30pm 19.7 20.1 16.2 80 2.1 NW 9 13 5 7 1015.5 1015.4 0.0
25/08:00pm 20.7 20.7 16.3 76 2.6 NW 11 15 6 8 1015.7 1015.6 0.0
25/07:30pm 21.8 20.8 16.5 72 3.2 NNW 17 24 9 13 1015.4 1015.3 0.0
25/07:00pm 21.9 19.9 16.4 71 3.3 N 22 28 12 15 1015.1 1015.0 0.0
25/06:30pm 21.8 20.2 16.5 72 3.2 N 20 28 11 15 1015.1 1015.0 0.0

Other Formats:

Comma delimited format used in spreadsheet applications
http://www.bom.gov.au/fwo/IDN60801/IDN60801.94592.axf

JavaScript Object Notation format (JSON) in row-major order
http://www.bom.gov.au/fwo/IDN60801/IDN60801.94592.json